This is the latest recevied weather packets stored in our database for station/object KB7KFC-3. If no packets are shown the sender has not sent any weather packets the latest 1 day(s).
| Time | Temp. | Humidity | Pressure | Rain* | Wind** | Luminosity | Snow |
|---|---|---|---|---|---|---|---|
| 1778090645 | 24.44° C | 27% | 1017.5 hPa | 0 mm | - | - | - |
| 1778090466 | 23.89° C | 26% | 1017.5 hPa | 0 mm | - | - | - |
| 1778088485 | 23.89° C | 28% | 1017.5 hPa | 0 mm | - | - | - |
| 1778087945 | 23.33° C | 28% | 1017.5 hPa | 0 mm | - | - | - |
| 1778087764 | 23.89° C | 29% | 1017.5 hPa | 0 mm | - | - | - |
| 1778087224 | 22.78° C | 28% | 1017.5 hPa | 0 mm | - | - | - |
| 1778087045 | 22.78° C | 28% | 1017.5 hPa | 0 mm | - | - | - |
| 1778086324 | 22.22° C | 29% | 1017.6 hPa | 0 mm | - | - | - |
| 1778085965 | 22.22° C | 29% | 1017.6 hPa | 0 mm | - | - | - |
| 1778085245 | 21.67° C | 30% | 1017.5 hPa | 0 mm | - | - | - |
| 1778083985 | 21.11° C | 31% | 1017.5 hPa | 0 mm | - | - | - |
| 1778083625 | 21.11° C | 31% | 1017.6 hPa | 0 mm | - | - | - |
| 1778083444 | 21.11° C | 33% | 1017.6 hPa | 0 mm | - | - | - |
| 1778082724 | 20.56° C | 35% | 1017.6 hPa | 0 mm | - | - | - |
| 1778082545 | 20.56° C | 36% | 1017.6 hPa | 0 mm | - | - | - |
| 1778082364 | 20.56° C | 34% | 1017.7 hPa | 0 mm | - | - | - |
| 1778081285 | 19.44° C | 38% | 1017.6 hPa | 0 mm | - | - | - |
| 1778081105 | 19.44° C | 36% | 1017.6 hPa | 0 mm | - | - | - |
| 1778080924 | 18.89° C | 37% | 1017.6 hPa | 0 mm | - | - | - |
| 1778077325 | 15.56° C | 44% | 1017.2 hPa | 0 mm | - | - | - |
| 1778076965 | 15.56° C | 46% | 1017.1 hPa | 0 mm | - | - | - |
| 1778076065 | 15° C | 48% | 1017 hPa | 0 mm | - | - | - |
| 1778075884 | 14.44° C | 49% | 1016.9 hPa | 0 mm | - | - | - |
| 1778075704 | 14.44° C | 47% | 1017 hPa | 0 mm | - | - | - |
| 1778075526 | 14.44° C | 46% | 1016.9 hPa | 0 mm | - | - | - |
* Rain latest hour (hover to see other rain measurements)
** Current wind speed in m/s (hover to see current wind gust speed)